createdAt,value
2023-02-27T00:01:02.289Z,-0.80
2023-02-27T00:04:06.612Z,-0.82
2023-02-27T00:07:10.918Z,-0.84
2023-02-27T00:10:16.082Z,-0.84
2023-02-27T00:13:20.626Z,-0.85
2023-02-27T00:16:24.788Z,-0.80
2023-02-27T00:19:29.093Z,-0.83
2023-02-27T00:22:33.503Z,-0.83
2023-02-27T00:25:37.856Z,-0.75
2023-02-27T00:28:42.159Z,-0.76
2023-02-27T00:31:46.583Z,-0.80
2023-02-27T00:34:51.245Z,-0.85
2023-02-27T00:37:55.851Z,-0.86
2023-02-27T00:41:00.102Z,-0.85
2023-02-27T00:44:05.205Z,-0.89
2023-02-27T00:47:09.288Z,-0.88
2023-02-27T00:50:14.545Z,-0.88
2023-02-27T00:53:18.994Z,-0.95
2023-02-27T00:56:23.456Z,-0.93
2023-02-27T00:59:27.472Z,-0.92
2023-02-27T01:02:31.770Z,-0.96
2023-02-27T01:05:36.300Z,-1.01
2023-02-27T01:08:40.523Z,-1.10
2023-02-27T01:11:45.208Z,-1.09
2023-02-27T01:14:49.415Z,-1.10
2023-02-27T01:17:53.757Z,-1.12
2023-02-27T01:20:57.857Z,-1.13
2023-02-27T01:24:02.841Z,-1.15
2023-02-27T01:27:07.640Z,-1.23
2023-02-27T01:30:14.679Z,-1.22
2023-02-27T01:33:18.893Z,-1.19
2023-02-27T01:36:23.241Z,-1.23
2023-02-27T01:39:27.861Z,-1.26
2023-02-27T01:42:32.359Z,-1.23
2023-02-27T01:45:41.896Z,-1.27
2023-02-27T01:48:47.176Z,-1.24
2023-02-27T01:52:03.181Z,-1.26
2023-02-27T01:55:09.368Z,-1.24
2023-02-27T01:58:15.948Z,-1.23
2023-02-27T02:01:22.070Z,-1.23
2023-02-27T02:04:36.305Z,-1.26
2023-02-27T02:07:44.624Z,-1.25
2023-02-27T02:10:51.960Z,-1.26
2023-02-27T02:13:59.508Z,-1.29
2023-02-27T02:17:41.378Z,-1.34
2023-02-27T02:21:22.948Z,-1.32
2023-02-27T02:24:33.245Z,-1.33
2023-02-27T02:27:48.810Z,-1.32
2023-02-27T02:31:02.252Z,-1.35
2023-02-27T02:34:50.852Z,-1.34
2023-02-27T02:38:34.746Z,-1.31
2023-02-27T02:42:01.211Z,-1.32
2023-02-27T02:45:48.324Z,-1.38
2023-02-27T02:49:13.111Z,-1.37
2023-02-27T02:52:33.130Z,-1.32
2023-02-27T02:56:05.692Z,-1.33
2023-02-27T02:59:30.911Z,-1.35
2023-02-27T03:02:43.888Z,-1.35
2023-02-27T03:05:57.065Z,-1.37
2023-02-27T03:10:00.588Z,-1.33
2023-02-27T03:13:14.581Z,-1.32
2023-02-27T03:16:31.600Z,-1.37
2023-02-27T03:19:59.448Z,-1.40
2023-02-27T03:23:11.446Z,-1.39
2023-02-27T03:26:21.611Z,-1.42
2023-02-27T03:29:37.904Z,-1.44
2023-02-27T03:33:02.646Z,-1.38
2023-02-27T03:36:27.518Z,-1.35
2023-02-27T03:39:43.286Z,-1.38
2023-02-27T03:43:16.451Z,-1.40
2023-02-27T03:46:26.363Z,-1.50
2023-02-27T03:49:30.271Z,-1.51
2023-02-27T03:52:34.740Z,-1.50
2023-02-27T03:55:43.899Z,-1.48
2023-02-27T03:58:48.394Z,-1.51
2023-02-27T04:01:55.354Z,-1.50
2023-02-27T04:04:59.563Z,-1.51
2023-02-27T04:08:31.921Z,-1.58
2023-02-27T04:11:53.579Z,-1.54
2023-02-27T04:15:06.698Z,-1.49
2023-02-27T04:18:50.721Z,-1.53
2023-02-27T04:22:16.095Z,-1.54
2023-02-27T04:25:41.256Z,-1.54
2023-02-27T04:29:05.109Z,-1.57
2023-02-27T04:32:35.509Z,-1.57
2023-02-27T04:35:59.163Z,-1.59
2023-02-27T04:39:20.471Z,-1.53
2023-02-27T04:42:34.051Z,-1.59
2023-02-27T04:45:41.494Z,-1.60
2023-02-27T04:48:54.298Z,-1.59
2023-02-27T04:52:42.974Z,-1.55
2023-02-27T04:55:53.643Z,-1.56
2023-02-27T04:59:05.215Z,-1.61
2023-02-27T05:02:24.678Z,-1.56
2023-02-27T05:05:34.216Z,-1.55
2023-02-27T05:09:03.503Z,-1.58
2023-02-27T05:12:21.321Z,-1.58
2023-02-27T05:15:33.401Z,-1.53
2023-02-27T05:18:37.979Z,-1.54
2023-02-27T05:22:12.037Z,-1.58
2023-02-27T05:25:35.826Z,-1.51
2023-02-27T05:28:58.335Z,-1.45
2023-02-27T05:32:40.761Z,-1.47
2023-02-27T05:36:27.031Z,-1.50
2023-02-27T05:39:36.170Z,-1.42
2023-02-27T05:43:39.627Z,-1.50
2023-02-27T05:46:52.171Z,-1.54
2023-02-27T05:50:23.666Z,-1.53
2023-02-27T05:53:33.961Z,-1.57
2023-02-27T05:56:40.188Z,-1.61
2023-02-27T06:00:03.288Z,-1.58
2023-02-27T06:03:08.046Z,-1.57
2023-02-27T06:06:16.905Z,-1.62
2023-02-27T06:09:21.110Z,-1.60
2023-02-27T06:12:25.490Z,-1.56
2023-02-27T06:15:30.032Z,-1.57
2023-02-27T06:18:34.533Z,-1.57
2023-02-27T06:21:38.980Z,-1.53
2023-02-27T06:24:43.310Z,-1.52
2023-02-27T06:27:48.238Z,-1.55
2023-02-27T06:30:57.192Z,-1.43
2023-02-27T06:34:01.715Z,-1.37
2023-02-27T06:37:05.914Z,-1.39
2023-02-27T06:40:11.884Z,-1.35
2023-02-27T06:43:16.160Z,-1.33
2023-02-27T06:46:20.637Z,-1.24
2023-02-27T06:49:25.230Z,-1.14
2023-02-27T06:52:29.502Z,-1.10
2023-02-27T06:55:34.719Z,-1.08
2023-02-27T06:58:39.145Z,-1.01
2023-02-27T07:01:43.685Z,-0.99
2023-02-27T07:04:48.589Z,-0.88
2023-02-27T07:07:52.759Z,-0.87
2023-02-27T07:10:57.464Z,-0.84
2023-02-27T07:14:02.617Z,-0.80
2023-02-27T07:17:07.216Z,-0.75
2023-02-27T07:20:12.642Z,-0.73
2023-02-27T07:23:17.752Z,-0.74
2023-02-27T07:26:21.785Z,-0.75
2023-02-27T07:29:26.422Z,-0.73
2023-02-27T07:32:30.822Z,-0.71
2023-02-27T07:35:35.427Z,-0.62
2023-02-27T07:38:39.747Z,-0.64
2023-02-27T07:41:44.065Z,-0.61
2023-02-27T07:44:48.328Z,-0.56
2023-02-27T07:47:52.731Z,-0.48
2023-02-27T07:50:57.673Z,-0.49
2023-02-27T07:54:02.217Z,-0.42
2023-02-27T07:57:06.400Z,-0.34
2023-02-27T08:00:12.228Z,-0.25
2023-02-27T08:03:16.624Z,-0.20
2023-02-27T08:06:21.876Z,-0.15
2023-02-27T08:09:26.114Z,-0.02
2023-02-27T08:12:30.260Z,0.11
2023-02-27T08:15:34.712Z,0.27
2023-02-27T08:18:38.976Z,0.30
2023-02-27T08:21:43.264Z,0.40
2023-02-27T08:24:47.585Z,0.50
2023-02-27T08:27:51.699Z,0.65
2023-02-27T08:30:56.533Z,0.72
2023-02-27T08:34:26.749Z,0.85
2023-02-27T08:37:31.532Z,0.97
2023-02-27T08:40:36.078Z,1.09
2023-02-27T08:43:40.604Z,1.14
2023-02-27T08:46:45.495Z,1.28
2023-02-27T08:49:49.659Z,1.32
2023-02-27T08:52:54.190Z,1.43
2023-02-27T08:55:58.405Z,1.48
2023-02-27T08:59:03.833Z,1.65
2023-02-27T09:02:11.042Z,1.74
2023-02-27T09:05:15.806Z,1.86
2023-02-27T09:08:19.994Z,1.94
2023-02-27T09:11:25.811Z,1.96
2023-02-27T09:14:30.923Z,1.98
2023-02-27T09:17:35.060Z,2.17
2023-02-27T09:20:41.437Z,2.26
2023-02-27T09:23:46.080Z,2.35
2023-02-27T09:26:51.623Z,2.43
2023-02-27T09:29:56.470Z,2.53
2023-02-27T09:33:00.755Z,2.63
2023-02-27T09:36:06.769Z,2.67
2023-02-27T09:39:11.007Z,2.73
2023-02-27T09:42:28.324Z,2.73
2023-02-27T09:45:39.144Z,2.78
2023-02-27T09:48:51.977Z,2.96
2023-02-27T09:51:56.017Z,3.03
2023-02-27T09:55:00.531Z,3.09
2023-02-27T09:58:29.096Z,3.15
2023-02-27T10:01:48.196Z,3.28
2023-02-27T10:05:19.130Z,3.34
2023-02-27T10:08:29.185Z,3.42
2023-02-27T10:12:00.178Z,3.45
2023-02-27T10:15:25.898Z,3.57
2023-02-27T10:18:41.447Z,3.61
2023-02-27T10:21:53.402Z,3.76
2023-02-27T10:25:30.344Z,3.79
2023-02-27T10:28:35.607Z,3.82
2023-02-27T10:31:41.130Z,3.86
2023-02-27T10:35:09.332Z,3.89
2023-02-27T10:38:32.530Z,4.03
2023-02-27T10:41:37.975Z,4.07
2023-02-27T10:44:42.578Z,4.16
2023-02-27T10:47:46.919Z,4.18
2023-02-27T10:50:52.230Z,4.28
2023-02-27T10:54:15.376Z,4.39
2023-02-27T10:57:33.475Z,4.55
2023-02-27T11:00:55.598Z,4.56
2023-02-27T11:04:00.217Z,4.70
2023-02-27T11:07:10.068Z,4.79
2023-02-27T11:10:14.512Z,4.92
2023-02-27T11:13:22.356Z,5.03
2023-02-27T11:16:27.728Z,5.11
2023-02-27T11:19:33.730Z,5.08
2023-02-27T11:22:38.199Z,5.25
2023-02-27T11:25:43.712Z,5.40
2023-02-27T11:29:18.138Z,5.45
2023-02-27T11:32:24.343Z,5.42
2023-02-27T11:35:38.623Z,5.58
2023-02-27T11:38:55.648Z,5.62
2023-02-27T11:42:17.435Z,5.56
2023-02-27T11:46:05.218Z,5.65
2023-02-27T11:48:56.658Z,5.53
2023-02-27T11:52:13.610Z,5.64
2023-02-27T11:55:25.752Z,5.64
2023-02-27T11:58:42.526Z,5.54
2023-02-27T12:02:25.222Z,5.71
2023-02-27T12:05:42.750Z,5.82
2023-02-27T12:09:04.861Z,5.75
2023-02-27T12:12:32.127Z,5.87
2023-02-27T12:15:52.947Z,5.74
2023-02-27T12:19:18.199Z,5.83
2023-02-27T12:22:46.982Z,5.90
2023-02-27T12:26:05.161Z,5.95
2023-02-27T12:29:32.953Z,5.84
2023-02-27T12:32:49.155Z,5.88
2023-02-27T12:36:02.382Z,6.01
2023-02-27T12:39:19.201Z,6.03
2023-02-27T12:42:59.004Z,5.99
2023-02-27T12:46:57.312Z,5.84
2023-02-27T12:50:23.113Z,5.93
2023-02-27T12:54:25.453Z,5.91
2023-02-27T12:57:36.311Z,5.87
2023-02-27T13:01:00.831Z,5.85
2023-02-27T13:04:44.468Z,5.81
2023-02-27T13:08:20.215Z,5.92
2023-02-27T13:11:30.791Z,5.89
2023-02-27T13:14:46.149Z,5.95
2023-02-27T13:18:03.969Z,6.15
2023-02-27T13:21:37.774Z,6.15
2023-02-27T13:24:51.668Z,6.32
2023-02-27T13:28:05.021Z,6.49
2023-02-27T13:31:51.939Z,6.44
2023-02-27T13:35:51.200Z,6.38
2023-02-27T13:38:57.476Z,6.93
2023-02-27T13:42:02.029Z,7.52
2023-02-27T13:45:49.635Z,7.94
2023-02-27T13:49:05.959Z,7.93
2023-02-27T13:52:10.660Z,7.66
2023-02-27T13:55:36.902Z,7.51
2023-02-27T13:58:42.549Z,7.39
2023-02-27T14:02:10.781Z,7.30
2023-02-27T14:05:16.814Z,7.22
2023-02-27T14:08:46.559Z,7.10
2023-02-27T14:11:59.272Z,7.06
2023-02-27T14:15:33.865Z,7.00
2023-02-27T14:18:54.814Z,6.96
2023-02-27T14:22:24.453Z,6.90
2023-02-27T14:25:37.934Z,6.87
2023-02-27T14:28:55.542Z,6.78
2023-02-27T14:32:08.390Z,6.63
2023-02-27T14:35:16.281Z,6.53
2023-02-27T14:38:21.490Z,6.54
2023-02-27T14:41:41.273Z,6.49
2023-02-27T14:44:48.452Z,6.48
2023-02-27T14:47:53.595Z,6.40
2023-02-27T14:50:58.032Z,6.41
2023-02-27T14:54:19.345Z,6.47
2023-02-27T14:57:28.922Z,6.49
2023-02-27T15:00:38.330Z,6.65
2023-02-27T15:04:17.167Z,6.58
2023-02-27T15:07:28.587Z,6.64
2023-02-27T15:10:33.456Z,6.64
2023-02-27T15:13:39.757Z,6.64
2023-02-27T15:16:44.688Z,6.56
2023-02-27T15:19:58.204Z,6.38
2023-02-27T15:23:26.000Z,6.37
2023-02-27T15:26:40.028Z,6.33
2023-02-27T15:29:56.343Z,6.30
2023-02-27T15:33:02.833Z,6.31
2023-02-27T15:36:08.446Z,6.26
2023-02-27T15:39:17.400Z,6.20
2023-02-27T15:42:28.392Z,6.18
2023-02-27T15:45:36.209Z,6.10
2023-02-27T15:48:40.370Z,6.04
2023-02-27T15:51:48.936Z,6.03
2023-02-27T15:55:04.543Z,6.04
2023-02-27T15:58:43.132Z,6.01
2023-02-27T16:01:49.732Z,5.98
2023-02-27T16:04:54.394Z,5.87
2023-02-27T16:07:58.686Z,5.87
2023-02-27T16:11:04.490Z,5.86
2023-02-27T16:14:43.730Z,5.84
2023-02-27T16:18:09.494Z,5.81
2023-02-27T16:21:19.729Z,5.73
2023-02-27T16:24:31.985Z,5.67
2023-02-27T16:27:37.058Z,5.57
2023-02-27T16:30:42.501Z,5.51
2023-02-27T16:33:46.945Z,5.40
2023-02-27T16:37:05.328Z,5.38
2023-02-27T16:40:20.209Z,5.31
2023-02-27T16:43:24.562Z,5.23
2023-02-27T16:46:28.913Z,5.19
2023-02-27T16:49:33.775Z,5.13
2023-02-27T16:52:38.084Z,5.12
2023-02-27T16:55:43.741Z,5.12
2023-02-27T16:58:48.838Z,5.07
2023-02-27T17:01:53.254Z,5.09
2023-02-27T17:04:57.673Z,5.02
2023-02-27T17:08:03.508Z,4.99
2023-02-27T17:11:08.862Z,4.98
2023-02-27T17:14:13.461Z,5.02
2023-02-27T17:17:17.899Z,4.99
2023-02-27T17:20:22.031Z,4.97
2023-02-27T17:23:26.434Z,4.91
2023-02-27T17:26:31.193Z,4.90
2023-02-27T17:29:38.935Z,4.89
2023-02-27T17:32:43.337Z,4.81
2023-02-27T17:35:47.811Z,4.80
2023-02-27T17:39:03.551Z,4.73
2023-02-27T17:42:08.112Z,4.68
2023-02-27T17:45:12.590Z,4.63
2023-02-27T17:48:16.669Z,4.74
2023-02-27T17:51:21.039Z,4.67
2023-02-27T17:54:25.365Z,4.68
2023-02-27T17:57:29.863Z,4.57
2023-02-27T18:00:34.140Z,4.52
2023-02-27T18:03:39.802Z,4.44
2023-02-27T18:06:44.202Z,4.39
2023-02-27T18:09:48.672Z,4.32
2023-02-27T18:12:52.945Z,4.28
2023-02-27T18:15:57.848Z,4.33
2023-02-27T18:19:04.968Z,4.31
2023-02-27T18:22:10.893Z,4.24
2023-02-27T18:25:16.725Z,4.22
2023-02-27T18:28:21.518Z,4.27
2023-02-27T18:31:29.997Z,4.24
2023-02-27T18:34:34.424Z,4.27
2023-02-27T18:37:39.409Z,4.29
2023-02-27T18:40:44.201Z,4.40
2023-02-27T18:43:49.654Z,4.38
2023-02-27T18:46:55.038Z,4.36
2023-02-27T18:49:59.970Z,4.36
2023-02-27T18:53:04.943Z,4.33
2023-02-27T18:56:11.007Z,4.41
2023-02-27T18:59:15.306Z,4.48
2023-02-27T19:02:19.895Z,4.46
2023-02-27T19:05:24.306Z,4.46
2023-02-27T19:08:29.554Z,4.42
2023-02-27T19:11:34.580Z,4.37
2023-02-27T19:14:39.305Z,4.36
2023-02-27T19:17:43.801Z,4.37
2023-02-27T19:20:48.091Z,4.36
2023-02-27T19:23:53.040Z,4.38
2023-02-27T19:26:57.546Z,4.38
2023-02-27T19:30:03.250Z,4.37
2023-02-27T19:33:07.564Z,4.35
2023-02-27T19:36:15.969Z,4.37
2023-02-27T19:39:22.196Z,4.43
2023-02-27T19:42:26.701Z,4.42
2023-02-27T19:45:31.087Z,4.32
2023-02-27T19:48:36.057Z,4.35
2023-02-27T19:51:41.424Z,4.32
2023-02-27T19:54:45.497Z,4.25
2023-02-27T19:57:50.005Z,4.24
2023-02-27T20:00:54.569Z,4.30
2023-02-27T20:04:01.293Z,4.27
2023-02-27T20:07:07.442Z,4.26
2023-02-27T20:10:12.421Z,4.26
2023-02-27T20:13:16.596Z,4.31
2023-02-27T20:16:23.907Z,4.30
2023-02-27T20:19:28.176Z,4.29
2023-02-27T20:22:33.072Z,4.33
2023-02-27T20:25:37.654Z,4.27
2023-02-27T20:28:42.053Z,4.31
2023-02-27T20:31:50.232Z,4.26
2023-02-27T20:34:55.871Z,4.19
2023-02-27T20:38:00.261Z,4.24
2023-02-27T20:41:11.524Z,4.23
2023-02-27T20:44:16.474Z,4.25
2023-02-27T20:47:20.612Z,4.27
2023-02-27T20:50:24.798Z,4.26
2023-02-27T20:53:29.587Z,4.22
2023-02-27T20:56:43.380Z,4.21
2023-02-27T20:59:50.216Z,4.22
2023-02-27T21:02:54.659Z,4.26
2023-02-27T21:06:00.016Z,4.21
2023-02-27T21:09:06.608Z,4.17
2023-02-27T21:12:12.210Z,4.24
2023-02-27T21:15:16.583Z,4.25
2023-02-27T21:18:20.823Z,4.29
2023-02-27T21:21:32.580Z,4.24
2023-02-27T21:24:37.686Z,4.26
2023-02-27T21:27:42.041Z,4.26
2023-02-27T21:30:47.338Z,4.26
2023-02-27T21:33:53.320Z,4.25
2023-02-27T21:37:00.583Z,4.28
2023-02-27T21:40:07.359Z,4.27
2023-02-27T21:43:11.769Z,4.25
2023-02-27T21:46:16.135Z,4.27
2023-02-27T21:49:24.725Z,4.30
2023-02-27T21:52:31.380Z,4.28
2023-02-27T21:55:35.942Z,4.28
2023-02-27T21:58:41.628Z,4.25
2023-02-27T22:01:48.247Z,4.29
2023-02-27T22:04:53.096Z,4.25
2023-02-27T22:07:57.906Z,4.19
2023-02-27T22:11:04.036Z,4.21
2023-02-27T22:14:10.128Z,4.22
2023-02-27T22:17:14.341Z,4.21
2023-02-27T22:20:18.572Z,4.20
2023-02-27T22:23:23.024Z,4.20
2023-02-27T22:26:29.121Z,4.17
2023-02-27T22:29:33.903Z,4.17
2023-02-27T22:32:39.820Z,4.15
2023-02-27T22:35:44.071Z,4.14
2023-02-27T22:38:48.959Z,4.14
2023-02-27T22:41:55.357Z,4.14
2023-02-27T22:45:00.796Z,4.17
2023-02-27T22:48:05.372Z,4.18
2023-02-27T22:51:14.474Z,4.17
2023-02-27T22:54:21.951Z,4.16
2023-02-27T22:57:26.673Z,4.17
2023-02-27T23:00:31.047Z,4.18
2023-02-27T23:03:36.738Z,4.19
2023-02-27T23:06:41.997Z,4.15
2023-02-27T23:09:48.507Z,4.12
2023-02-27T23:12:53.096Z,4.09
2023-02-27T23:15:57.484Z,4.09
2023-02-27T23:19:02.948Z,4.09
2023-02-27T23:22:07.230Z,4.12
2023-02-27T23:25:11.845Z,4.18
2023-02-27T23:28:16.330Z,4.15
2023-02-27T23:31:20.761Z,4.05
2023-02-27T23:34:25.521Z,4.07
2023-02-27T23:37:30.130Z,4.10
2023-02-27T23:40:36.337Z,4.12
2023-02-27T23:43:40.908Z,4.18
2023-02-27T23:46:45.340Z,4.15
2023-02-27T23:49:49.687Z,4.18
2023-02-27T23:52:56.252Z,4.15
2023-02-27T23:56:00.964Z,4.12
2023-02-27T23:59:07.203Z,4.18
